createdAt,value
2023-06-10T00:00:02.829Z,26.39
2023-06-10T00:03:00.895Z,26.38
2023-06-10T00:05:32.442Z,26.38
2023-06-10T00:08:00.923Z,26.37
2023-06-10T00:10:29.130Z,26.36
2023-06-10T00:12:57.574Z,26.36
2023-06-10T00:15:25.700Z,26.37
2023-06-10T00:17:54.298Z,26.36
2023-06-10T00:20:24.705Z,26.36
2023-06-10T00:22:53.335Z,26.37
2023-06-10T00:25:21.609Z,26.36
2023-06-10T00:27:49.980Z,26.35
2023-06-10T00:30:18.323Z,26.35
2023-06-10T00:32:46.376Z,26.35
2023-06-10T00:35:14.941Z,26.36
2023-06-10T00:37:43.189Z,26.35
2023-06-10T00:40:12.027Z,26.35
2023-06-10T00:42:40.701Z,26.35
2023-06-10T00:45:09.545Z,26.34
2023-06-10T00:47:38.902Z,26.34
2023-06-10T00:50:07.641Z,26.34
2023-06-10T00:52:35.978Z,26.33
2023-06-10T00:55:04.672Z,26.33
2023-06-10T00:57:33.738Z,26.32
2023-06-10T01:00:01.989Z,26.33
2023-06-10T01:02:30.733Z,26.33
2023-06-10T01:05:03.015Z,26.32
2023-06-10T01:07:41.356Z,26.32
2023-06-10T01:10:12.677Z,26.32
2023-06-10T01:12:41.198Z,26.31
2023-06-10T01:15:11.564Z,26.30
2023-06-10T01:17:56.281Z,26.30
2023-06-10T01:20:27.937Z,26.29
2023-06-10T01:22:56.476Z,26.29
2023-06-10T01:25:30.609Z,26.29
2023-06-10T01:28:21.651Z,26.30
2023-06-10T01:31:22.364Z,26.29
2023-06-10T01:33:52.888Z,26.27
2023-06-10T01:36:21.424Z,26.27
2023-06-10T01:38:49.626Z,26.26
2023-06-10T01:41:18.413Z,26.26
2023-06-10T01:43:46.583Z,26.27
2023-06-10T01:46:16.405Z,26.26
2023-06-10T01:48:44.773Z,26.26
2023-06-10T01:51:13.227Z,26.27
2023-06-10T01:53:41.398Z,26.26
2023-06-10T01:56:09.517Z,26.27
2023-06-10T01:58:37.524Z,26.27
2023-06-10T02:01:05.897Z,26.26
2023-06-10T02:03:34.078Z,26.25
2023-06-10T02:06:02.656Z,26.25
2023-06-10T02:08:30.815Z,26.26
2023-06-10T02:11:02.003Z,26.26
2023-06-10T02:13:31.367Z,26.26
2023-06-10T02:15:59.553Z,26.25
2023-06-10T02:18:29.790Z,26.25
2023-06-10T02:20:57.825Z,26.25
2023-06-10T02:23:27.989Z,26.24
2023-06-10T02:25:56.576Z,26.25
2023-06-10T02:28:26.921Z,26.24
2023-06-10T02:30:55.086Z,26.24
2023-06-10T02:33:24.290Z,26.24
2023-06-10T02:35:52.517Z,26.24
2023-06-10T02:38:21.170Z,26.24
2023-06-10T02:40:49.919Z,26.24
2023-06-10T02:43:18.282Z,26.23
2023-06-10T02:45:46.663Z,26.23
2023-06-10T02:48:16.009Z,26.23
2023-06-10T02:50:44.477Z,26.23
2023-06-10T02:53:18.773Z,26.23
2023-06-10T02:55:50.691Z,26.22
2023-06-10T02:58:19.635Z,26.21
2023-06-10T03:00:48.373Z,26.23
2023-06-10T03:03:17.400Z,26.22
2023-06-10T03:05:51.713Z,26.23
2023-06-10T03:08:20.237Z,26.23
2023-06-10T03:10:48.394Z,26.23
2023-06-10T03:13:18.102Z,26.23
2023-06-10T03:15:47.393Z,26.23
2023-06-10T03:18:17.880Z,26.24
2023-06-10T03:20:46.659Z,26.23
2023-06-10T03:23:16.847Z,26.24
2023-06-10T03:25:46.245Z,26.24
2023-06-10T03:28:17.145Z,26.25
2023-06-10T03:30:46.079Z,26.25
2023-06-10T03:33:15.168Z,26.24
2023-06-10T03:35:43.714Z,26.25
2023-06-10T03:38:12.574Z,26.24
2023-06-10T03:40:41.302Z,26.25
2023-06-10T03:43:09.653Z,26.24
2023-06-10T03:45:38.178Z,26.25
2023-06-10T03:48:07.569Z,26.25
2023-06-10T03:50:43.495Z,26.26
2023-06-10T03:53:11.640Z,26.25
2023-06-10T03:55:40.743Z,26.26
2023-06-10T03:58:08.867Z,26.26
2023-06-10T04:00:42.546Z,26.26
2023-06-10T04:03:15.650Z,26.26
2023-06-10T04:05:49.397Z,26.26
2023-06-10T04:08:17.513Z,26.26
2023-06-10T04:10:45.637Z,26.26
2023-06-10T04:13:15.732Z,26.26
2023-06-10T04:15:51.085Z,26.26
2023-06-10T04:18:19.314Z,26.25
2023-06-10T04:20:47.698Z,26.26
2023-06-10T04:23:15.698Z,26.26
2023-06-10T04:25:45.450Z,26.27
2023-06-10T04:28:13.875Z,26.27
2023-06-10T04:30:42.963Z,26.27
2023-06-10T04:33:11.394Z,26.27
2023-06-10T04:35:40.358Z,26.27
2023-06-10T04:38:09.236Z,26.28
2023-06-10T04:40:37.259Z,26.28
2023-06-10T04:43:06.200Z,26.29
2023-06-10T04:45:34.704Z,26.29
2023-06-10T04:50:34.285Z,26.32
2023-06-10T04:53:04.008Z,26.32
2023-06-10T04:55:32.765Z,26.34
2023-06-10T04:58:02.109Z,26.34
2023-06-10T05:00:30.245Z,26.35
2023-06-10T05:03:00.832Z,26.36
2023-06-10T05:05:28.953Z,26.36
2023-06-10T05:07:59.311Z,26.37
2023-06-10T05:10:27.341Z,26.37
2023-06-10T05:12:56.938Z,26.39
2023-06-10T05:15:25.207Z,26.39
2023-06-10T05:17:58.582Z,26.40
2023-06-10T05:20:27.106Z,26.40
2023-06-10T05:22:56.835Z,26.41
2023-06-10T05:25:27.097Z,26.42
2023-06-10T05:27:56.336Z,26.43
2023-06-10T05:30:25.771Z,26.43
2023-06-10T05:32:56.762Z,26.43
2023-06-10T05:35:25.078Z,26.43
2023-06-10T05:37:54.419Z,26.45
2023-06-10T05:40:22.721Z,26.45
2023-06-10T05:42:52.141Z,26.46
2023-06-10T05:45:20.186Z,26.47
2023-06-10T05:47:48.261Z,26.47
2023-06-10T05:50:17.829Z,26.47
2023-06-10T05:52:45.903Z,26.48
2023-06-10T05:55:14.072Z,26.48
2023-06-10T05:57:43.667Z,26.48
2023-06-10T06:00:12.644Z,26.50
2023-06-10T06:02:42.325Z,26.50
2023-06-10T06:05:10.859Z,26.51
2023-06-10T06:07:40.651Z,26.52
2023-06-10T06:10:08.847Z,26.53
2023-06-10T06:12:38.633Z,26.53
2023-06-10T06:15:07.172Z,26.55
2023-06-10T06:17:36.826Z,26.56
2023-06-10T06:20:05.646Z,26.58
2023-06-10T06:22:36.103Z,26.58
2023-06-10T06:25:04.345Z,26.60
2023-06-10T06:27:34.053Z,26.61
2023-06-10T06:30:02.189Z,26.62
2023-06-10T06:32:32.198Z,26.63
2023-06-10T06:35:00.225Z,26.63
2023-06-10T06:37:30.689Z,26.64
2023-06-10T06:40:09.470Z,26.64
2023-06-10T06:42:37.637Z,26.65
2023-06-10T06:45:16.856Z,26.66
2023-06-10T06:47:45.095Z,26.67
2023-06-10T06:50:16.342Z,26.67
2023-06-10T06:52:44.584Z,26.67
2023-06-10T06:55:14.981Z,26.68
2023-06-10T06:57:43.006Z,26.67
2023-06-10T07:00:13.853Z,26.69
2023-06-10T07:02:42.662Z,26.70
2023-06-10T07:05:12.443Z,26.69
2023-06-10T07:07:40.817Z,26.69
2023-06-10T07:10:12.133Z,26.68
2023-06-10T07:12:40.587Z,26.69
2023-06-10T07:15:11.137Z,26.70
2023-06-10T07:17:39.570Z,26.72
2023-06-10T07:20:09.338Z,26.72
2023-06-10T07:22:37.350Z,26.73
2023-06-10T07:25:08.463Z,26.74
2023-06-10T07:27:38.311Z,26.75
2023-06-10T07:30:09.584Z,26.75
2023-06-10T07:32:37.861Z,26.76
2023-06-10T07:35:09.935Z,26.76
2023-06-10T07:37:38.590Z,26.76
2023-06-10T07:40:08.400Z,26.76
2023-06-10T07:42:37.654Z,26.77
2023-06-10T07:45:07.750Z,26.77
2023-06-10T07:47:36.304Z,26.78
2023-06-10T07:50:06.165Z,26.78
2023-06-10T07:52:35.863Z,26.79
2023-06-10T07:55:06.221Z,26.79
2023-06-10T07:57:37.582Z,26.80
2023-06-10T08:00:07.591Z,26.80
2023-06-10T08:02:43.080Z,26.80
2023-06-10T08:05:11.438Z,26.82
2023-06-10T08:07:41.229Z,26.82
2023-06-10T08:10:09.352Z,26.82
2023-06-10T08:12:39.901Z,26.82
2023-06-10T08:15:08.928Z,26.83
2023-06-10T08:17:39.171Z,26.84
2023-06-10T08:20:08.620Z,26.86
2023-06-10T08:22:38.109Z,26.87
2023-06-10T08:25:07.218Z,26.88
2023-06-10T08:27:36.840Z,26.88
2023-06-10T08:30:05.363Z,26.89
2023-06-10T08:32:34.753Z,26.90
2023-06-10T08:35:02.861Z,26.91
2023-06-10T08:37:33.282Z,26.92
2023-06-10T08:40:02.350Z,26.92
2023-06-10T08:42:57.471Z,26.93
2023-06-10T08:45:27.309Z,26.95
2023-06-10T08:47:55.442Z,26.95
2023-06-10T08:50:25.318Z,26.95
2023-06-10T08:52:55.335Z,26.95
2023-06-10T08:55:36.983Z,26.96
2023-06-10T08:58:06.214Z,26.97
2023-06-10T09:00:35.737Z,26.97
2023-06-10T09:03:05.735Z,26.99
2023-06-10T09:05:39.503Z,26.99
2023-06-10T09:08:10.323Z,27.00
2023-06-10T09:10:38.407Z,27.00
2023-06-10T09:13:07.803Z,27.01
2023-06-10T09:15:36.005Z,27.02
2023-06-10T09:18:06.267Z,27.02
2023-06-10T09:20:36.072Z,27.03
2023-06-10T09:23:04.546Z,27.04
2023-06-10T09:25:38.990Z,27.04
2023-06-10T09:28:14.077Z,27.05
2023-06-10T09:30:43.388Z,27.05
2023-06-10T09:33:13.517Z,27.06
2023-06-10T09:35:47.196Z,27.05
2023-06-10T09:38:17.018Z,27.08
2023-06-10T09:40:51.096Z,27.08
2023-06-10T09:43:21.964Z,27.09
2023-06-10T09:45:50.915Z,27.10
2023-06-10T09:48:20.480Z,27.11
2023-06-10T09:50:49.634Z,27.12
2023-06-10T09:53:19.428Z,27.12
2023-06-10T09:55:47.491Z,27.12
2023-06-10T09:58:18.113Z,27.14
2023-06-10T10:00:46.219Z,27.15
2023-06-10T10:03:23.527Z,27.16
2023-06-10T10:05:59.629Z,27.18
2023-06-10T10:08:29.660Z,27.19
2023-06-10T10:10:58.154Z,27.20
2023-06-10T10:13:28.182Z,27.20
2023-06-10T10:15:58.165Z,27.20
2023-06-10T10:18:30.190Z,27.20
2023-06-10T10:20:58.790Z,27.21
2023-06-10T10:23:33.361Z,27.21
2023-06-10T10:26:08.035Z,27.21
2023-06-10T10:28:43.623Z,27.22
2023-06-10T10:31:12.122Z,27.22
2023-06-10T10:33:50.650Z,27.21
2023-06-10T10:36:20.206Z,27.22
2023-06-10T10:38:52.433Z,27.22
2023-06-10T10:41:22.381Z,27.22
2023-06-10T10:43:52.712Z,27.22
2023-06-10T10:46:22.181Z,27.22
2023-06-10T10:48:53.777Z,27.22
2023-06-10T10:51:26.395Z,27.22
2023-06-10T10:54:14.262Z,27.22
2023-06-10T10:57:21.390Z,27.22
2023-06-10T10:59:50.895Z,27.22
2023-06-10T11:02:46.023Z,27.22
2023-06-10T11:05:17.332Z,27.22
2023-06-10T11:07:58.666Z,27.21
2023-06-10T11:10:32.356Z,27.21
2023-06-10T11:13:00.970Z,27.22
2023-06-10T11:15:31.606Z,27.22
2023-06-10T11:18:11.842Z,27.24
2023-06-10T11:20:50.189Z,27.25
2023-06-10T11:23:46.051Z,27.25
2023-06-10T11:26:17.133Z,27.24
2023-06-10T11:28:48.579Z,27.25
2023-06-10T11:31:31.621Z,27.26
2023-06-10T11:34:02.921Z,27.27
2023-06-10T11:36:31.046Z,27.29
2023-06-10T11:39:01.512Z,27.30
2023-06-10T11:41:30.593Z,27.33
2023-06-10T11:44:06.862Z,27.36
2023-06-10T11:46:36.486Z,27.38
2023-06-10T11:49:05.135Z,27.41
2023-06-10T11:51:41.974Z,27.42
2023-06-10T11:54:11.312Z,27.45
2023-06-10T11:56:39.693Z,27.47
2023-06-10T11:59:10.092Z,27.47
2023-06-10T12:01:43.951Z,27.47
2023-06-10T12:04:15.332Z,27.45
2023-06-10T12:06:50.721Z,27.44
2023-06-10T12:09:24.167Z,27.42
2023-06-10T12:12:00.710Z,27.40
2023-06-10T12:15:03.908Z,27.39
2023-06-10T12:17:33.821Z,27.37
2023-06-10T12:20:02.646Z,27.35
2023-06-10T12:22:42.067Z,27.33
2023-06-10T12:25:12.787Z,27.30
2023-06-10T12:27:42.169Z,27.29
2023-06-10T12:30:12.046Z,27.27
2023-06-10T12:32:44.086Z,27.26
2023-06-10T12:35:21.023Z,27.26
2023-06-10T12:38:04.608Z,27.25
2023-06-10T12:40:41.761Z,27.23
2023-06-10T12:43:11.336Z,27.22
2023-06-10T12:45:46.389Z,27.21
2023-06-10T12:48:23.134Z,27.20
2023-06-10T12:50:54.074Z,27.19
2023-06-10T12:53:24.337Z,27.19
2023-06-10T12:55:53.683Z,27.19
2023-06-10T12:58:23.211Z,27.20
2023-06-10T13:00:56.339Z,27.21
2023-06-10T13:03:24.385Z,27.23
2023-06-10T13:05:54.136Z,27.28
2023-06-10T13:08:22.295Z,27.36
2023-06-10T13:10:51.906Z,27.45
2023-06-10T13:13:20.291Z,27.51
2023-06-10T13:15:51.229Z,27.52
2023-06-10T13:18:20.263Z,27.52
2023-06-10T13:20:50.093Z,27.53
2023-06-10T13:23:18.058Z,27.51
2023-06-10T13:25:48.764Z,27.49
2023-06-10T13:28:17.102Z,27.48
2023-06-10T13:30:46.636Z,27.47
2023-06-10T13:33:14.804Z,27.45
2023-06-10T13:35:45.163Z,27.42
2023-06-10T13:38:13.749Z,27.40
2023-06-10T13:40:43.843Z,27.37
2023-06-10T13:43:12.515Z,27.34
2023-06-10T13:45:42.004Z,27.32
2023-06-10T13:48:10.351Z,27.29
2023-06-10T13:50:39.822Z,27.27
2023-06-10T13:53:07.833Z,27.24
2023-06-10T13:55:38.308Z,27.22
2023-06-10T13:58:06.669Z,27.19
2023-06-10T14:00:37.027Z,27.17
2023-06-10T14:03:05.265Z,27.15
2023-06-10T14:05:35.693Z,27.13
2023-06-10T14:08:04.111Z,27.10
2023-06-10T14:10:33.971Z,27.08
2023-06-10T14:13:01.995Z,27.05
2023-06-10T14:15:33.480Z,27.02
2023-06-10T14:18:02.367Z,26.99
2023-06-10T14:20:32.640Z,26.97
2023-06-10T14:23:00.914Z,26.94
2023-06-10T14:25:30.466Z,26.92
2023-06-10T14:27:59.414Z,26.90
2023-06-10T14:30:28.716Z,26.88
2023-06-10T14:32:56.875Z,26.87
2023-06-10T14:35:26.516Z,26.85
2023-06-10T14:37:54.526Z,26.83
2023-06-10T14:40:24.124Z,26.82
2023-06-10T14:42:53.492Z,26.79
2023-06-10T14:45:21.558Z,26.77
2023-06-10T14:47:52.008Z,26.76
2023-06-10T14:50:20.454Z,26.75
2023-06-10T14:52:50.776Z,26.74
2023-06-10T14:55:19.381Z,26.72
2023-06-10T14:57:50.213Z,26.72
2023-06-10T15:00:21.088Z,26.71
2023-06-10T15:02:50.948Z,26.70
2023-06-10T15:05:20.686Z,26.69
2023-06-10T15:07:50.094Z,26.68
2023-06-10T15:10:21.036Z,26.67
2023-06-10T15:12:57.326Z,26.64
2023-06-10T15:15:27.914Z,26.64
2023-06-10T15:17:56.986Z,26.61
2023-06-10T15:20:26.387Z,26.62
2023-06-10T15:22:55.022Z,26.62
2023-06-10T15:25:31.129Z,26.61
2023-06-10T15:28:01.229Z,26.61
2023-06-10T15:30:29.332Z,26.61
2023-06-10T15:32:58.743Z,26.59
2023-06-10T15:35:28.275Z,26.59
2023-06-10T15:37:56.515Z,26.59
2023-06-10T15:40:27.440Z,26.58
2023-06-10T15:42:55.915Z,26.58
2023-06-10T15:45:26.350Z,26.58
2023-06-10T15:47:54.743Z,26.58
2023-06-10T15:50:25.205Z,26.57
2023-06-10T15:52:53.283Z,26.57
2023-06-10T15:55:23.678Z,26.56
2023-06-10T15:57:51.740Z,26.57
2023-06-10T16:00:22.068Z,26.56
2023-06-10T16:02:50.369Z,26.56
2023-06-10T16:05:20.811Z,26.54
2023-06-10T16:07:48.938Z,26.54
2023-06-10T16:10:18.801Z,26.54
2023-06-10T16:12:46.810Z,26.54
2023-06-10T16:15:17.565Z,26.53
2023-06-10T16:17:46.865Z,26.53
2023-06-10T16:20:16.604Z,26.54
2023-06-10T16:22:44.920Z,26.55
2023-06-10T16:25:15.436Z,26.55
2023-06-10T16:27:43.498Z,26.55
2023-06-10T16:30:17.001Z,26.55
2023-06-10T16:32:45.028Z,26.57
2023-06-10T16:35:14.684Z,26.59
2023-06-10T16:37:43.278Z,26.61
2023-06-10T16:40:13.784Z,26.62
2023-06-10T16:42:42.184Z,26.64
2023-06-10T16:45:12.642Z,26.66
2023-06-10T16:47:41.081Z,26.67
2023-06-10T16:50:10.774Z,26.68
2023-06-10T16:52:39.070Z,26.69
2023-06-10T16:55:10.028Z,26.69
2023-06-10T16:57:38.347Z,26.69
2023-06-10T17:00:09.886Z,26.68
2023-06-10T17:02:37.906Z,26.68
2023-06-10T17:05:08.152Z,26.68
2023-06-10T17:07:36.417Z,26.67
2023-06-10T17:10:07.562Z,26.67
2023-06-10T17:12:35.643Z,26.66
2023-06-10T17:15:05.803Z,26.66
2023-06-10T17:17:35.093Z,26.65
2023-06-10T17:20:06.395Z,26.63
2023-06-10T17:22:34.531Z,26.62
2023-06-10T17:25:03.971Z,26.61
2023-06-10T17:27:32.218Z,26.60
2023-06-10T17:30:02.004Z,26.60
2023-06-10T17:32:30.287Z,26.58
2023-06-10T17:35:01.186Z,26.57
2023-06-10T17:37:29.334Z,26.57
2023-06-10T17:40:00.273Z,26.55
2023-06-10T17:42:28.433Z,26.55
2023-06-10T17:44:58.043Z,26.53
2023-06-10T17:47:26.218Z,26.53
2023-06-10T17:49:56.583Z,26.51
2023-06-10T17:52:24.579Z,26.50
2023-06-10T17:54:54.943Z,26.49
2023-06-10T17:57:23.594Z,26.48
2023-06-10T17:59:54.127Z,26.48
2023-06-10T18:02:22.708Z,26.47
2023-06-10T18:04:52.398Z,26.47
2023-06-10T18:07:20.525Z,26.45
2023-06-10T18:09:50.952Z,26.44
2023-06-10T18:12:19.248Z,26.43
2023-06-10T18:14:49.599Z,26.42
2023-06-10T18:17:17.731Z,26.42
2023-06-10T18:19:48.226Z,26.42
2023-06-10T18:22:16.440Z,26.41
2023-06-10T18:24:46.885Z,26.40
2023-06-10T18:27:16.784Z,26.41
2023-06-10T18:29:46.595Z,26.40
2023-06-10T18:32:14.968Z,26.39
2023-06-10T18:34:44.351Z,26.38
2023-06-10T18:37:12.430Z,26.38
2023-06-10T18:39:42.936Z,26.37
2023-06-10T18:42:11.245Z,26.36
2023-06-10T18:44:41.878Z,26.36
2023-06-10T18:47:09.944Z,26.37
2023-06-10T18:49:39.745Z,26.36
2023-06-10T18:52:08.182Z,26.36
2023-06-10T18:54:37.661Z,26.35
2023-06-10T18:57:07.137Z,26.34
2023-06-10T18:59:36.611Z,26.34
2023-06-10T19:02:05.056Z,26.33
2023-06-10T19:04:34.584Z,26.32
2023-06-10T19:07:03.082Z,26.32
2023-06-10T19:09:32.477Z,26.32
2023-06-10T19:12:00.857Z,26.32
2023-06-10T19:14:30.682Z,26.31
2023-06-10T19:16:58.846Z,26.31
2023-06-10T19:19:29.225Z,26.30
2023-06-10T19:21:57.632Z,26.30
2023-06-10T19:24:28.021Z,26.30
2023-06-10T19:26:56.073Z,26.31
2023-06-10T19:29:26.572Z,26.30
2023-06-10T19:31:54.689Z,26.30
2023-06-10T19:34:25.190Z,26.30
2023-06-10T19:36:53.288Z,26.30
2023-06-10T19:39:22.943Z,26.28
2023-06-10T19:41:51.178Z,26.28
2023-06-10T19:44:21.604Z,26.28
2023-06-10T19:46:49.956Z,26.28
2023-06-10T19:49:20.225Z,26.27
2023-06-10T19:51:50.236Z,26.26
2023-06-10T19:54:20.128Z,26.27
2023-06-10T19:56:48.235Z,26.26
2023-06-10T19:59:17.916Z,26.26
2023-06-10T20:01:46.545Z,26.26
2023-06-10T20:04:16.582Z,26.25
2023-06-10T20:06:45.147Z,26.25
2023-06-10T20:09:14.710Z,26.24
2023-06-10T20:11:42.932Z,26.25
2023-06-10T20:14:14.333Z,26.25
2023-06-10T20:16:42.795Z,26.23
2023-06-10T20:19:12.312Z,26.23
2023-06-10T20:21:41.428Z,26.23
2023-06-10T20:24:11.046Z,26.24
2023-06-10T20:26:39.171Z,26.24
2023-06-10T20:29:09.741Z,26.23
2023-06-10T20:31:38.099Z,26.23
2023-06-10T20:34:07.567Z,26.23
2023-06-10T20:36:35.775Z,26.23
2023-06-10T20:39:06.608Z,26.22
2023-06-10T20:41:35.648Z,26.22
2023-06-10T20:44:05.497Z,26.22
2023-06-10T20:46:33.723Z,26.21
2023-06-10T20:49:03.339Z,26.20
2023-06-10T20:51:31.392Z,26.21
2023-06-10T20:54:01.813Z,26.20
2023-06-10T20:56:29.974Z,26.20
2023-06-10T20:59:00.645Z,26.19
2023-06-10T21:01:29.023Z,26.19
2023-06-10T21:03:59.474Z,26.18
2023-06-10T21:06:28.491Z,26.19
2023-06-10T21:08:58.071Z,26.20
2023-06-10T21:11:26.591Z,26.19
2023-06-10T21:13:57.108Z,26.18
2023-06-10T21:16:25.373Z,26.18
2023-06-10T21:18:56.330Z,26.18
2023-06-10T21:21:24.435Z,26.18
2023-06-10T21:23:55.478Z,26.18
2023-06-10T21:26:23.596Z,26.18
2023-06-10T21:28:52.893Z,26.17
2023-06-10T21:31:21.389Z,26.17
2023-06-10T21:33:51.047Z,26.17
2023-06-10T21:36:19.625Z,26.17
2023-06-10T21:38:49.293Z,26.16
2023-06-10T21:41:17.514Z,26.15
2023-06-10T21:43:48.033Z,26.15
2023-06-10T21:46:16.044Z,26.15
2023-06-10T21:48:46.516Z,26.14
2023-06-10T21:51:14.544Z,26.16
2023-06-10T21:53:44.932Z,26.14
2023-06-10T21:56:37.857Z,26.15
2023-06-10T21:59:07.183Z,26.14
2023-06-10T22:01:36.899Z,26.13
2023-06-10T22:04:06.365Z,26.13
2023-06-10T22:06:34.944Z,26.13
2023-06-10T22:09:04.344Z,26.13
2023-06-10T22:11:32.611Z,26.12
2023-06-10T22:14:03.025Z,26.13
2023-06-10T22:16:31.665Z,26.13
2023-06-10T22:19:02.776Z,26.12
2023-06-10T22:21:31.206Z,26.11
2023-06-10T22:24:01.130Z,26.11
2023-06-10T22:26:40.021Z,26.11
2023-06-10T22:29:13.233Z,26.11
2023-06-10T22:31:41.474Z,26.10
2023-06-10T22:34:11.915Z,26.09
2023-06-10T22:36:40.328Z,26.09
2023-06-10T22:39:13.340Z,26.09
2023-06-10T22:41:41.518Z,26.10
2023-06-10T22:44:11.106Z,26.09
2023-06-10T22:46:39.163Z,26.09
2023-06-10T22:49:11.720Z,26.08
2023-06-10T22:51:39.935Z,26.08
2023-06-10T22:54:10.360Z,26.08
2023-06-10T22:56:38.506Z,26.08
2023-06-10T22:59:08.883Z,26.08
2023-06-10T23:01:36.994Z,26.08
2023-06-10T23:04:08.083Z,26.07
2023-06-10T23:06:36.312Z,26.07
2023-06-10T23:09:06.374Z,26.07
2023-06-10T23:11:34.449Z,26.07
2023-06-10T23:14:04.865Z,26.07
2023-06-10T23:16:57.636Z,26.07
2023-06-10T23:19:28.205Z,26.06
2023-06-10T23:21:57.478Z,26.05
2023-06-10T23:24:30.215Z,26.05
2023-06-10T23:26:59.777Z,26.05
2023-06-10T23:29:29.794Z,26.05
2023-06-10T23:31:58.554Z,26.05
2023-06-10T23:34:28.083Z,26.06
2023-06-10T23:36:57.634Z,26.06
2023-06-10T23:39:27.003Z,26.05
2023-06-10T23:41:55.452Z,26.05
2023-06-10T23:44:26.018Z,26.04
2023-06-10T23:46:54.187Z,26.04
2023-06-10T23:49:24.634Z,26.04
2023-06-10T23:51:52.647Z,26.04
2023-06-10T23:54:22.960Z,26.04
2023-06-10T23:56:50.976Z,26.03
2023-06-10T23:59:21.379Z,26.03
